Main page
METAR-TAF:

METAR-TAF

Airports :

Moundou Airport

Moundou, Chad

latitude: 08-37N, longitude: 016-04E, elevation: 428 m

Current weather observation

The report was made 21 hours and 5 minutes ago, at 06:00 UTC
Calm wind
Temperature 23°C
Humidity 94%
Pressure 1014 hPa
Visibility 10 km or more
Few clouds at a height of 3000 ft

METAR: FTTD 250600Z 00000KT 9999 FEW030 23/22 Q1014

Time: 04:05 (03:05 UTC)


TAF: missing

Weather observations and forecasts of more than 4000 airports (METAR and TAF reports).

The available stations are represented by yellow and red dots on the map.

Hover mouse over dot to see the name of the station.

Then click to see weather observations and forecasts.

To change the map : click on the green buttons with a black cross to zoom in, on the green button with a dash to zoom out, or on the green arrows for adjacent maps.


METAR-TAF: